Time;durP1;ratioP1;P1;durP2;ratioP2;P2;SDS_P1;SDS_P2;PMS_P1;PMS_P2;Temp;Humidity;BMP_temperature;BMP_pressure;BME280_temperature;BME280_humidity;BME280_pressure;Samples;Min_cycle;Max_cycle;Signal;HPM_P1;HPM_P2
2022/01/18 00:00:44;;;;;;;;;63.25;49.75;;;;;5.44;66.47;103735.56;5061520;28;45526;-81
2022/01/18 00:03:10;;;;;;;;;60.00;48.25;;;;;5.39;66.72;103720.66;5061667;28;45384;-81
2022/01/18 00:05:36;;;;;;;;;64.00;47.50;;;;;5.40;66.35;103727.66;5061074;28;46352;-81
2022/01/18 00:08:01;;;;;;;;;57.75;46.75;;;;;5.42;66.25;103729.41;5060067;28;45347;-80
2022/01/18 00:10:30;;;;;;;;;63.50;49.75;;;;;5.40;66.50;103727.66;5061024;28;45351;-80
2022/01/18 00:15:39;;;;;;;;;58.75;47.50;;;;;5.35;66.49;103721.38;5061076;28;45915;-81
2022/01/18 00:18:11;;;;;;;;;61.75;49.00;;;;;5.34;66.40;103716.09;5060447;28;45393;-81
2022/01/18 00:23:09;;;;;;;;;59.00;47.00;;;;;5.27;66.81;103726.31;5061479;28;45448;-81
2022/01/18 00:25:37;;;;;;;;;56.50;44.50;;;;;5.28;66.48;103715.00;5060806;28;45648;-81
2022/01/18 00:28:04;;;;;;;;;62.75;47.25;;;;;5.27;66.62;103721.09;5061216;28;45543;-81
2022/01/18 00:35:35;;;;;;;;;56.50;44.00;;;;;5.24;66.76;103701.81;5060463;28;46082;-81
2022/01/18 00:38:02;;;;;;;;;49.75;41.50;;;;;5.24;66.29;103713.13;5061052;28;45298;-81
2022/01/18 00:40:29;;;;;;;;;54.75;44.00;;;;;5.23;66.54;103702.66;5061323;28;45234;-81
2022/01/18 00:42:54;;;;;;;;;53.00;42.50;;;;;5.23;66.78;103689.63;5061229;28;45380;-81
2022/01/18 00:45:19;;;;;;;;;54.50;44.50;;;;;5.26;66.61;103706.25;5060763;28;46433;-81
2022/01/18 00:47:46;;;;;;;;;55.50;45.00;;;;;5.22;66.60;103712.19;5060671;28;45258;-81
2022/01/18 00:50:11;;;;;;;;;53.75;42.00;;;;;5.22;66.49;103693.03;5061167;28;45298;-81
2022/01/18 00:52:42;;;;;;;;;54.75;45.00;;;;;5.22;66.29;103713.91;5060766;28;45254;-81
2022/01/18 00:55:08;;;;;;;;;55.25;42.25;;;;;5.20;66.78;103719.06;5060706;28;46315;-81
2022/01/18 00:57:33;;;;;;;;;56.75;44.75;;;;;5.18;66.42;103689.44;5060405;28;45804;-81
2022/01/18 00:59:58;;;;;;;;;54.25;41.50;;;;;5.16;66.59;103696.34;5061168;28;45401;-81
2022/01/18 01:02:24;;;;;;;;;53.25;41.25;;;;;5.17;66.45;103711.13;5060749;28;45448;-81
2022/01/18 01:04:50;;;;;;;;;53.75;41.50;;;;;5.16;66.58;103691.13;5060488;28;45359;-81
2022/01/18 01:07:20;;;;;;;;;51.00;41.50;;;;;5.14;66.68;103687.53;5060376;28;45157;-81
2022/01/18 01:09:46;;;;;;;;;47.25;39.00;;;;;5.15;66.36;103703.25;5060981;28;45435;-81
2022/01/18 01:12:13;;;;;;;;;48.75;39.50;;;;;5.12;66.73;103703.13;5060551;28;45706;-81
2022/01/18 01:14:41;;;;;;;;;48.00;36.75;;;;;5.13;66.48;103699.72;5060398;28;46115;-81
2022/01/18 01:18:05;;;;;;;;;45.00;38.00;;;;;5.12;66.78;103704.84;5059944;28;45390;-84
2022/01/18 01:33:53;;;;;;;;;47.25;38.50;;;;;5.03;66.70;103703.69;5058963;28;45426;-80
2022/01/18 01:41:49;;;;;;;;;50.00;40.75;;;;;5.02;68.28;103708.81;5070079;28;45289;-82
2022/01/18 01:44:24;;;;;;;;;44.00;36.50;;;;;5.02;69.98;103712.31;5059656;28;45294;-83
2022/01/18 01:46:49;;;;;;;;;47.00;38.75;;;;;5.07;69.47;103721.22;5059947;28;45520;-84
2022/01/18 01:49:15;;;;;;;;;44.25;35.50;;;;;5.10;69.47;103716.94;5060295;28;45307;-84
2022/01/18 01:51:42;;;;;;;;;35.75;29.25;;;;;5.17;69.69;103721.56;5059828;28;45236;-84
2022/01/18 01:54:10;;;;;;;;;43.50;38.00;;;;;5.23;69.74;103723.53;5075150;28;45507;-84
2022/01/18 01:56:36;;;;;;;;;40.25;34.75;;;;;5.30;70.18;103709.88;5059710;28;45723;-84
2022/01/18 01:59:03;;;;;;;;;47.25;36.25;;;;;5.35;70.04;103717.88;5060064;28;45923;-84
2022/01/18 02:01:29;;;;;;;;;45.50;35.75;;;;;5.43;69.85;103718.16;5059712;28;45608;-85
2022/01/18 02:03:56;;;;;;;;;41.75;34.50;;;;;5.48;70.16;103721.84;5059016;28;45251;-84
2022/01/18 02:06:22;;;;;;;;;38.50;33.50;;;;;5.50;69.89;103717.56;5059496;28;45291;-85
2022/01/18 02:08:48;;;;;;;;;39.25;31.00;;;;;5.59;69.75;103728.31;5059929;28;45148;-84
2022/01/18 02:11:14;;;;;;;;;36.75;32.75;;;;;5.62;69.60;103719.72;5060178;28;45342;-85
2022/01/18 02:13:40;;;;;;;;;36.25;30.00;;;;;5.67;69.75;103718.16;5059154;28;45456;-86
2022/01/18 02:24:04;;;;;;;;;38.50;31.75;;;;;5.69;69.16;103716.50;5058314;28;45295;-85
2022/01/18 02:26:29;;;;;;;;;33.00;25.25;;;;;5.72;69.43;103713.09;5059465;28;45445;-82
2022/01/18 02:28:59;;;;;;;;;32.75;30.25;;;;;5.71;69.32;103708.72;5059208;28;45554;-82
2022/01/18 02:31:24;;;;;;;;;33.50;32.50;;;;;5.74;69.63;103722.78;5054164;28;45377;-81
2022/01/18 02:33:49;;;;;;;;;31.75;28.25;;;;;5.80;69.08;103718.59;5052211;28;45783;-81
2022/01/18 02:36:15;;;;;;;;;41.00;32.00;;;;;5.77;69.09;103703.72;5058868;28;46230;-82
2022/01/18 02:38:40;;;;;;;;;39.75;30.00;;;;;5.77;69.07;103706.34;5057764;28;45401;-82
2022/01/18 02:41:07;;;;;;;;;35.00;27.50;;;;;5.79;69.21;103709.00;5059266;28;45400;-82
2022/01/18 02:43:50;;;;;;;;;38.25;31.50;;;;;5.86;68.95;103705.75;5061902;28;45404;-83
2022/01/18 02:46:15;;;;;;;;;27.50;23.25;;;;;5.85;69.10;103707.47;5062989;28;45464;-82
2022/01/18 02:48:40;;;;;;;;;42.50;34.00;;;;;5.91;69.29;103713.75;5062756;28;45462;-84
2022/01/18 02:51:06;;;;;;;;;42.50;29.00;;;;;5.91;69.13;103705.91;5062645;28;45486;-82
2022/01/18 02:53:31;;;;;;;;;34.75;34.00;;;;;5.89;69.11;103697.16;5062355;28;45547;-86
2022/01/18 02:55:58;;;;;;;;;30.75;26.50;;;;;5.86;69.05;103695.31;5062785;28;45498;-83
2022/01/18 02:58:31;;;;;;;;;36.00;30.25;;;;;5.88;68.96;103688.41;5061338;28;45694;-84
2022/01/18 03:03:25;;;;;;;;;39.50;32.00;;;;;5.92;68.86;103682.50;5062849;28;45423;-82
2022/01/18 03:05:50;;;;;;;;;30.75;25.75;;;;;5.92;68.53;103685.09;5062252;28;45323;-82
2022/01/18 03:08:17;;;;;;;;;41.50;31.00;;;;;5.96;68.87;103675.63;5062596;28;45292;-82
2022/01/18 03:10:43;;;;;;;;;30.75;26.25;;;;;5.94;68.83;103667.75;5062254;28;45354;-82
2022/01/18 03:13:08;;;;;;;;;35.50;31.00;;;;;5.96;68.57;103662.59;5062565;28;45422;-82
2022/01/18 03:15:35;;;;;;;;;39.00;31.75;;;;;5.98;68.37;103653.06;5062365;28;46488;-79
2022/01/18 03:18:07;;;;;;;;;44.50;29.75;;;;;5.96;68.67;103657.34;5062428;28;45957;-79
2022/01/18 03:20:33;;;;;;;;;32.75;28.00;;;;;5.93;68.72;103652.91;5061939;28;45215;-78
2022/01/18 03:22:59;;;;;;;;;47.75;33.25;;;;;5.96;68.69;103646.91;5062279;28;45448;-79
2022/01/18 03:25:27;;;;;;;;;32.25;27.50;;;;;5.98;68.50;103653.06;5060744;28;46360;-79
2022/01/18 03:28:05;;;;;;;;;31.75;23.50;;;;;5.98;68.62;103655.69;5062102;28;45335;-80
2022/01/18 03:30:35;;;;;;;;;29.75;25.25;;;;;6.03;68.60;103651.50;5050563;28;45296;-80
2022/01/18 03:33:02;;;;;;;;;27.00;22.75;;;;;6.03;68.15;103658.44;5062184;28;45485;-80
2022/01/18 03:35:27;;;;;;;;;33.25;30.25;;;;;6.06;68.18;103662.06;5061893;28;45434;-79
2022/01/18 03:37:53;;;;;;;;;38.50;31.75;;;;;6.08;68.56;103643.84;5061894;28;45441;-79
2022/01/18 03:40:19;;;;;;;;;39.00;29.00;;;;;6.10;68.21;103651.75;5062059;28;45400;-79
2022/01/18 03:42:46;;;;;;;;;32.25;25.50;;;;;6.08;68.09;103655.19;5062290;28;45539;-78
2022/01/18 03:45:29;;;;;;;;;38.00;30.75;;;;;6.09;68.36;103650.88;5061732;28;46222;-80
2022/01/18 03:47:56;;;;;;;;;27.25;25.25;;;;;6.09;68.06;103645.63;5062315;28;45967;-80
2022/01/18 03:50:22;;;;;;;;;34.75;29.50;;;;;6.07;68.13;103655.16;5061593;28;45459;-80
2022/01/18 03:52:48;;;;;;;;;34.25;28.00;;;;;6.06;68.52;103651.63;5061809;28;45530;-81
2022/01/18 03:55:16;;;;;;;;;42.25;34.25;;;;;6.09;68.24;103645.63;5059048;28;46461;-80
2022/01/18 03:57:41;;;;;;;;;39.00;33.00;;;;;6.11;68.42;103648.28;5062015;28;45244;-79
2022/01/18 04:00:19;;;;;;;;;42.50;32.00;;;;;6.12;68.31;103655.31;5061484;28;45556;-79
2022/01/18 04:02:45;;;;;;;;;38.75;33.50;;;;;6.14;68.43;103643.19;5049248;28;45238;-82
2022/01/18 04:05:11;;;;;;;;;33.25;29.75;;;;;6.14;68.18;103651.00;5059644;28;46617;-82
2022/01/18 04:07:37;;;;;;;;;32.00;28.25;;;;;6.11;68.33;103650.91;5061508;28;45447;-82
2022/01/18 04:10:04;;;;;;;;;37.50;26.25;;;;;6.10;67.96;103651.75;5061749;28;45519;-79
2022/01/18 04:12:30;;;;;;;;;40.25;33.25;;;;;6.12;68.23;103647.47;5061475;28;45477;-77
2022/01/18 04:14:55;;;;;;;;;38.00;31.50;;;;;6.03;68.22;103643.66;5060853;28;46340;-80
2022/01/18 04:28:22;;;;;;;;;31.50;28.00;;;;;6.06;67.78;103624.59;5061089;28;45438;-81
2022/01/18 04:30:47;;;;;;;;;32.75;28.25;;;;;6.02;67.66;103628.84;5048080;28;45472;-81
2022/01/18 04:33:13;;;;;;;;;32.75;28.50;;;;;6.03;67.83;103635.84;5060124;28;45336;-81
2022/01/18 04:35:38;;;;;;;;;30.50;26.00;;;;;6.05;67.75;103636.75;5060377;28;45455;-87
2022/01/18 04:38:04;;;;;;;;;34.50;25.25;;;;;6.02;67.59;103634.09;5060014;28;45831;-87
2022/01/18 04:40:31;;;;;;;;;32.75;28.00;;;;;6.03;67.28;103638.44;5061571;28;45228;-86
2022/01/18 04:43:05;;;;;;;;;32.75;25.50;;;;;6.01;67.45;103634.00;5061013;28;45444;-86
2022/01/18 04:48:27;;;;;;;;;30.25;26.75;;;;;5.93;67.21;103628.53;5060946;28;45440;-86
2022/01/18 04:51:08;;;;;;;;;30.00;24.50;;;;;5.90;66.99;103629.31;5061066;28;45523;-86
2022/01/18 04:53:36;;;;;;;;;37.00;28.25;;;;;5.84;66.79;103623.91;5060818;28;45390;-86
2022/01/18 04:56:07;;;;;;;;;39.75;32.00;;;;;5.81;67.12;103629.91;5060802;28;46457;-85
2022/01/18 04:58:33;;;;;;;;;34.50;27.00;;;;;5.77;67.12;103621.91;5061056;28;45342;-82
2022/01/18 05:01:02;;;;;;;;;33.75;28.00;;;;;5.74;67.27;103620.09;5060922;28;45200;-82
2022/01/18 05:03:29;;;;;;;;;42.75;35.25;;;;;5.71;66.95;103630.41;5060787;28;45455;-82
2022/01/18 05:05:57;;;;;;;;;37.25;33.00;;;;;5.70;66.67;103632.16;5059811;28;45514;-80
2022/01/18 05:08:24;;;;;;;;;44.50;33.00;;;;;5.68;66.99;103632.94;5060974;28;45829;-81
2022/01/18 05:10:56;;;;;;;;;45.50;33.75;;;;;5.63;67.08;103625.81;5060671;28;45442;-82
2022/01/18 05:14:15;;;;;;;;;36.50;31.00;;;;;5.62;66.86;103626.66;5060690;28;45306;-82
2022/01/18 05:21:28;;;;;;;;;42.25;31.75;;;;;5.59;67.38;103650.03;5060524;28;45456;-83
2022/01/18 05:23:54;;;;;;;;;39.00;31.50;;;;;5.58;67.73;103650.00;5059281;28;45350;-83
2022/01/18 05:26:20;;;;;;;;;40.00;32.00;;;;;5.56;67.59;103642.09;5060135;28;45623;-83
2022/01/18 05:28:46;;;;;;;;;37.50;31.75;;;;;5.59;68.10;103647.44;5060098;28;45245;-83
2022/01/18 05:31:11;;;;;;;;;31.25;28.25;;;;;5.63;68.37;103648.41;5060506;28;45272;-83
2022/01/18 05:33:40;;;;;;;;;38.50;32.50;;;;;5.63;68.04;103640.56;5060416;28;45285;-82
2022/01/18 05:36:06;;;;;;;;;42.25;35.00;;;;;5.65;68.31;103644.16;5059159;28;46295;-82
2022/01/18 05:38:33;;;;;;;;;40.00;35.00;;;;;5.72;68.25;103634.81;5060194;28;45428;-82
2022/01/18 05:40:59;;;;;;;;;48.50;37.50;;;;;5.71;68.41;103626.09;5060281;28;45283;-81
2022/01/18 05:43:24;;;;;;;;;36.00;33.50;;;;;5.74;68.71;103627.91;5060428;28;45259;-81
2022/01/18 05:45:50;;;;;;;;;39.00;29.50;;;;;5.79;68.57;103630.69;5058593;28;46186;-84
2022/01/18 05:48:15;;;;;;;;;37.00;31.25;;;;;5.80;69.30;103624.63;5059853;28;45224;-81
2022/01/18 05:50:41;;;;;;;;;40.25;27.25;;;;;5.77;69.21;103617.59;5059939;28;45481;-81
2022/01/18 05:53:06;;;;;;;;;34.00;27.25;;;;;5.78;69.10;103624.56;5059951;28;45605;-81
2022/01/18 05:55:32;;;;;;;;;33.50;29.50;;;;;5.78;69.14;103624.56;5059792;28;46368;-81
2022/01/18 05:57:57;;;;;;;;;31.00;26.25;;;;;5.81;69.04;103626.41;5056833;28;45497;-81
2022/01/18 06:00:24;;;;;;;;;37.25;30.50;;;;;5.85;68.85;103625.69;5060383;28;45206;-80
2022/01/18 06:08:07;;;;;;;;;43.50;33.50;;;;;5.80;69.13;103627.25;5059761;28;45445;-81
2022/01/18 06:10:33;;;;;;;;;34.00;30.50;;;;;5.80;69.30;103628.09;5059840;28;45330;-81
2022/01/18 06:13:03;;;;;;;;;50.75;36.50;;;;;5.78;69.35;103624.56;5059037;28;45284;-80
2022/01/18 06:15:30;;;;;;;;;41.50;30.75;;;;;5.78;69.13;103619.34;5058386;28;46046;-80
2022/01/18 06:17:55;;;;;;;;;39.50;31.00;;;;;5.81;69.11;103634.22;5058615;28;45274;-81
2022/01/18 06:20:21;;;;;;;;;59.50;41.75;;;;;5.79;69.05;103620.25;5059243;28;45219;-77
2022/01/18 06:22:46;;;;;;;;;43.50;35.00;;;;;5.78;69.21;103624.56;5059360;28;45460;-80
2022/01/18 06:25:11;;;;;;;;;42.25;28.75;;;;;5.75;69.27;103629.69;5059781;28;46338;-80
2022/01/18 06:27:37;;;;;;;;;34.50;27.50;;;;;5.76;69.06;103635.78;5059506;28;45298;-79
2022/01/18 06:30:10;;;;;;;;;39.00;27.00;;;;;5.72;68.96;103634.81;5059404;28;45212;-78
2022/01/18 06:32:39;;;;;;;;;40.25;32.25;;;;;5.71;69.39;103630.41;5058307;28;45394;-78
2022/01/18 06:35:07;;;;;;;;;58.25;41.25;;;;;5.70;69.20;103637.38;5058637;28;45380;-79
2022/01/18 06:37:33;;;;;;;;;35.00;30.00;;;;;5.70;69.07;103640.00;5059532;28;45448;-80
2022/01/18 06:40:00;;;;;;;;;35.50;25.75;;;;;5.74;69.19;103638.34;5059633;28;45266;-80
2022/01/18 06:42:26;;;;;;;;;32.50;28.00;;;;;5.72;68.83;103640.03;5059160;28;45475;-80
2022/01/18 06:44:52;;;;;;;;;26.00;22.00;;;;;5.71;68.71;103631.31;5059118;28;46276;-79
2022/01/18 06:47:17;;;;;;;;;30.50;25.00;;;;;5.76;68.96;103644.50;5059160;28;45234;-81
2022/01/18 06:49:42;;;;;;;;;25.75;22.75;;;;;5.75;68.54;103640.16;5059422;28;45212;-81
2022/01/18 06:52:08;;;;;;;;;31.75;23.25;;;;;5.77;68.56;103638.47;5058667;28;45388;-80
2022/01/18 06:54:34;;;;;;;;;47.50;37.25;;;;;5.77;67.92;103634.97;5059114;28;46324;-80
2022/01/18 06:56:59;;;;;;;;;56.50;39.00;;;;;5.78;68.39;103647.19;5059348;28;45402;-79
2022/01/18 06:59:25;;;;;;;;;55.50;39.25;;;;;5.78;67.85;103648.06;5059344;28;45330;-79
2022/01/18 07:01:50;;;;;;;;;44.50;38.50;;;;;5.73;67.51;103641.78;5059240;28;45434;-79
2022/01/18 07:04:16;;;;;;;;;43.75;35.00;;;;;5.73;67.79;103636.56;5058905;28;45412;-76
2022/01/18 07:06:41;;;;;;;;;42.25;33.25;;;;;5.74;67.48;103640.97;5058085;28;45502;-77
2022/01/18 07:09:07;;;;;;;;;39.50;32.00;;;;;5.70;67.89;103641.72;5061164;28;45539;-77
2022/01/18 07:11:32;;;;;;;;;68.00;48.00;;;;;5.70;67.64;103650.44;5059127;28;45514;-77
2022/01/18 07:13:58;;;;;;;;;59.75;45.00;;;;;5.67;67.52;103646.81;5057144;28;45342;-77
2022/01/18 07:16:23;;;;;;;;;43.75;34.25;;;;;5.65;67.85;103638.03;5050598;28;45278;-77
2022/01/18 07:18:48;;;;;;;;;43.50;37.00;;;;;5.66;68.03;103626.75;5056960;28;45286;-78
2022/01/18 07:21:14;;;;;;;;;41.00;37.00;;;;;5.65;67.83;103627.59;5053070;28;45639;-77
2022/01/18 07:23:39;;;;;;;;;45.75;38.50;;;;;5.62;67.70;103623.16;5043462;28;46093;-77
2022/01/18 07:26:05;;;;;;;;;35.00;27.25;;;;;5.61;67.56;103627.50;5053354;28;45621;-77
2022/01/18 07:28:31;;;;;;;;;44.00;35.00;;;;;5.60;67.65;103623.13;5050567;28;45158;-77
2022/01/18 07:30:56;;;;;;;;;42.25;36.00;;;;;5.61;67.92;103631.81;5052351;28;45407;-77
2022/01/18 07:33:22;;;;;;;;;27.25;23.25;;;;;5.60;67.61;103624.84;5056519;28;46242;-76
2022/01/18 07:35:48;;;;;;;;;34.50;29.50;;;;;5.60;67.86;103615.28;5055400;28;45390;-77
2022/01/18 07:38:17;;;;;;;;;34.50;29.25;;;;;5.62;67.91;103628.38;5054556;28;45295;-77
2022/01/18 07:40:47;;;;;;;;;32.75;29.75;;;;;5.60;67.86;103622.22;5056504;28;45524;-79
2022/01/18 07:43:16;;;;;;;;;37.00;27.50;;;;;5.61;68.12;103626.59;5049863;28;46296;-77
2022/01/18 07:45:43;;;;;;;;;30.75;30.00;;;;;5.60;67.97;103630.06;5059289;28;45509;-77
2022/01/18 07:48:09;;;;;;;;;31.00;27.50;;;;;5.60;68.19;103627.44;5049563;28;45247;-77
2022/01/18 07:50:34;;;;;;;;;38.50;28.75;;;;;5.58;67.85;103623.91;5056274;28;45219;-77
2022/01/18 07:53:00;;;;;;;;;35.00;28.00;;;;;5.59;68.02;103633.50;5056013;28;45416;-77
2022/01/18 07:55:26;;;;;;;;;32.00;29.75;;;;;5.57;68.02;103629.94;5062585;28;45347;-77
2022/01/18 07:57:52;;;;;;;;;30.50;25.00;;;;;5.55;67.92;103622.06;5060960;28;45366;-78
2022/01/18 08:00:18;;;;;;;;;34.50;26.50;;;;;5.59;68.35;103633.50;5071824;28;45460;-77
2022/01/18 08:02:44;;;;;;;;;38.00;29.25;;;;;5.58;68.51;103626.50;5047691;28;45491;-77
2022/01/18 08:05:11;;;;;;;;;36.75;30.00;;;;;5.59;68.36;103613.50;5069557;28;45949;-77
2022/01/18 08:07:37;;;;;;;;;33.50;29.25;;;;;5.63;68.30;103612.78;5062530;28;45311;-77
2022/01/18 08:10:05;;;;;;;;;41.50;32.75;;;;;5.63;68.34;103604.94;5063557;28;45443;-77
2022/01/18 08:12:31;;;;;;;;;44.25;37.50;;;;;5.66;68.84;103611.97;5063465;28;47877;-77
2022/01/18 08:15:02;;;;;;;;;37.50;30.25;;;;;5.67;68.93;103607.66;5058981;28;45287;-77
2022/01/18 08:17:28;;;;;;;;;42.00;35.25;;;;;5.74;68.96;103617.47;5058367;28;45452;-77
2022/01/18 08:19:53;;;;;;;;;42.00;35.25;;;;;5.76;69.20;103615.81;5058117;28;45453;-77
2022/01/18 08:22:19;;;;;;;;;48.50;36.75;;;;;5.77;69.27;103607.16;5062648;28;46164;-77
2022/01/18 08:24:44;;;;;;;;;35.50;31.00;;;;;5.81;68.91;103609.00;5056270;28;45425;-77
2022/01/18 08:27:11;;;;;;;;;44.25;34.50;;;;;5.85;69.04;103605.66;5058024;28;45528;-77
2022/01/18 08:29:36;;;;;;;;;43.00;37.25;;;;;5.88;69.23;103591.81;5060816;28;45452;-77
2022/01/18 08:32:04;;;;;;;;;36.00;33.00;;;;;5.93;69.41;103608.53;5060959;28;45327;-77
2022/01/18 08:34:29;;;;;;;;;40.50;34.50;;;;;5.99;69.03;103615.69;5060102;28;45426;-77
2022/01/18 08:36:55;;;;;;;;;41.00;35.50;;;;;6.01;69.23;103610.50;5059166;28;45425;-77
2022/01/18 08:39:20;;;;;;;;;40.00;35.50;;;;;6.03;69.39;103616.66;5060631;28;46394;-77
2022/01/18 08:41:46;;;;;;;;;43.50;37.50;;;;;6.07;69.45;103606.41;5060076;28;45462;-77
2022/01/18 08:44:11;;;;;;;;;40.50;35.50;;;;;6.12;69.36;103609.19;5060199;28;45404;-77
2022/01/18 08:46:36;;;;;;;;;44.75;34.25;;;;;6.17;69.29;103610.19;5060772;28;45349;-77
2022/01/18 08:49:05;;;;;;;;;41.50;35.00;;;;;6.21;69.66;103607.69;5060272;28;45476;-77
2022/01/18 08:51:30;;;;;;;;;35.00;28.00;;;;;6.27;69.58;103618.34;5059867;28;46185;-77
2022/01/18 08:53:56;;;;;;;;;38.75;32.00;;;;;6.26;69.45;103606.13;5059698;28;45168;-77
2022/01/18 08:56:22;;;;;;;;;35.00;28.00;;;;;6.30;69.93;103593.19;5060509;28;46902;-77
2022/01/18 08:58:48;;;;;;;;;26.50;24.75;;;;;6.36;69.88;103604.69;5060327;28;45567;-77
2022/01/18 09:01:15;;;;;;;;;30.50;26.00;;;;;6.39;69.97;103605.69;5072038;28;45500;-77
2022/01/18 09:03:41;;;;;;;;;39.50;28.25;;;;;6.45;69.88;103601.44;5065238;28;45392;-77
2022/01/18 09:06:07;;;;;;;;;27.50;24.50;;;;;6.48;70.11;103592.00;5065340;27;45391;-77
2022/01/18 09:08:36;;;;;;;;;28.00;20.25;;;;;6.55;70.10;103592.16;5062869;28;45456;-77
2022/01/18 09:11:03;;;;;;;;;31.50;24.50;;;;;6.61;70.26;103600.22;5064638;28;45417;-77
2022/01/18 09:13:28;;;;;;;;;32.75;25.00;;;;;6.65;70.77;103599.44;5065385;27;45515;-77
2022/01/18 09:15:54;;;;;;;;;32.50;28.75;;;;;6.62;70.91;103584.56;5049775;28;45496;-77
2022/01/18 09:18:20;;;;;;;;;30.25;24.75;;;;;6.67;70.20;103587.31;5072376;27;45508;-77
2022/01/18 09:20:46;;;;;;;;;30.75;24.25;;;;;6.73;70.70;103592.72;5060129;28;46589;-77
2022/01/18 09:23:12;;;;;;;;;32.25;28.25;;;;;6.77;70.77;103582.34;5059997;28;45469;-76
2022/01/18 09:25:37;;;;;;;;;46.25;31.00;;;;;6.82;70.75;103591.22;5047604;28;46567;-77
2022/01/18 09:28:03;;;;;;;;;33.25;28.75;;;;;6.86;70.63;103593.09;5073198;28;47304;-77
2022/01/18 09:30:30;;;;;;;;;33.00;29.25;;;;;6.90;70.25;103592.34;5068134;28;45389;-77
2022/01/18 09:32:58;;;;;;;;;37.25;32.50;;;;;6.94;70.68;103581.09;5064217;28;45275;-77
2022/01/18 09:35:24;;;;;;;;;28.75;24.25;;;;;7.01;70.60;103587.41;5058553;28;45456;-77
2022/01/18 09:37:50;;;;;;;;;40.25;32.25;;;;;7.04;70.26;103594.44;5063460;28;45463;-77
2022/01/18 09:40:19;;;;;;;;;35.25;29.50;;;;;7.09;70.61;103591.13;5064882;28;46008;-77
2022/01/18 09:42:46;;;;;;;;;38.75;32.00;;;;;7.12;71.00;103585.09;5057929;28;46121;-77
2022/01/18 09:45:15;;;;;;;;;36.00;30.75;;;;;7.19;70.56;103596.59;5059482;28;45257;-77
2022/01/18 09:47:44;;;;;;;;;35.75;32.75;;;;;7.23;70.41;103594.97;5058267;28;45320;-78
2022/01/18 09:50:11;;;;;;;;;42.00;32.50;;;;;7.25;70.64;103585.44;5056842;28;46826;-77
2022/01/18 09:52:38;;;;;;;;;43.00;34.75;;;;;7.31;70.54;103585.56;5057296;28;46054;-77
2022/01/18 09:55:06;;;;;;;;;35.00;31.00;;;;;7.36;69.96;103594.44;5059879;28;45232;-77
2022/01/18 09:57:32;;;;;;;;;37.00;28.00;;;;;7.39;70.28;103591.03;5059446;28;45473;-77
2022/01/18 09:59:59;;;;;;;;;37.25;31.25;;;;;7.45;70.15;103592.94;5058323;28;46266;-77
2022/01/18 10:02:25;;;;;;;;;35.25;30.00;;;;;7.50;70.01;103592.22;5057266;28;45686;-77
2022/01/18 10:04:53;;;;;;;;;39.50;32.00;;;;;7.49;69.96;103600.00;5055447;28;45284;-77
2022/01/18 10:07:30;;;;;;;;;39.25;28.25;;;;;7.54;70.23;103590.53;5058665;28;45304;-77
2022/01/18 10:10:01;;;;;;;;;43.25;33.00;;;;;7.56;69.96;103596.69;5058880;28;45616;-77
2022/01/18 10:12:27;;;;;;;;;37.25;32.00;;;;;7.62;70.49;103594.25;5060888;27;46846;-77
2022/01/18 10:14:58;;;;;;;;;46.00;31.00;;;;;7.68;70.01;103590.03;5061691;28;45447;-76
2022/01/18 10:17:30;;;;;;;;;49.50;35.75;;;;;7.76;69.77;103588.47;5058488;28;45954;-77
2022/01/18 10:20:03;;;;;;;;;33.75;29.25;;;;;7.80;70.10;103584.22;5059033;28;45606;-77
2022/01/18 10:22:40;;;;;;;;;47.00;33.75;;;;;7.82;70.17;103578.16;5057941;28;45460;-77
2022/01/18 10:25:17;;;;;;;;;34.50;28.25;;;;;7.86;69.62;103582.63;5058696;28;45450;-77
2022/01/18 10:27:43;;;;;;;;;30.50;26.75;;;;;7.90;69.80;103586.22;5058259;28;45425;-77
2022/01/18 10:30:15;;;;;;;;;31.75;28.50;;;;;7.94;69.95;103574.06;5071840;28;46289;-77
2022/01/18 10:32:42;;;;;;;;;46.50;34.50;;;;;7.98;70.07;103562.81;5058404;28;45778;-77
2022/01/18 10:35:10;;;;;;;;;38.50;30.50;;;;;8.04;69.49;103562.97;5058038;28;45398;-77
2022/01/18 10:37:41;;;;;;;;;40.00;31.50;;;;;8.09;69.38;103561.34;5058494;28;45166;-78
2022/01/18 10:40:17;;;;;;;;;36.25;31.50;;;;;8.16;69.58;103558.84;5053910;28;46565;-77
2022/01/18 10:42:50;;;;;;;;;35.25;31.50;;;;;8.17;69.75;103553.63;5057070;28;45471;-77
2022/01/18 10:45:26;;;;;;;;;37.00;30.00;;;;;8.24;69.29;103541.56;5058621;28;45480;-77
2022/01/18 10:48:11;;;;;;;;;36.00;27.50;;;;;8.26;68.94;103537.25;5058861;28;45492;-77
2022/01/18 10:50:39;;;;;;;;;29.75;27.00;;;;;8.32;69.17;103534.75;5058281;28;46758;-77
2022/01/18 10:53:21;;;;;;;;;31.50;27.50;;;;;8.36;68.73;103532.19;5048588;28;45383;-77
2022/01/18 10:55:50;;;;;;;;;35.00;29.25;;;;;8.42;68.55;103525.34;5052235;28;45414;-77
2022/01/18 10:58:19;;;;;;;;;30.00;29.25;;;;;8.43;68.81;103524.50;5046411;28;45406;-77
2022/01/18 11:00:45;;;;;;;;;31.00;25.25;;;;;8.47;68.72;103517.56;5055401;28;48078;-77
2022/01/18 11:03:11;;;;;;;;;27.00;24.50;;;;;8.53;68.30;103512.47;5059030;28;45302;-77
2022/01/18 11:05:40;;;;;;;;;34.50;27.25;;;;;8.55;68.07;103510.75;5063218;28;45496;-77
2022/01/18 11:08:06;;;;;;;;;27.00;22.25;;;;;8.59;67.99;103508.25;5066341;28;45591;-77
2022/01/18 11:10:58;;;;;;;;;28.25;23.75;;;;;8.62;67.65;103498.69;5062211;28;45647;-77
2022/01/18 11:13:24;;;;;;;;;30.75;24.25;;;;;8.64;67.69;103496.13;5073773;27;46017;-77
2022/01/18 11:15:53;;;;;;;;;27.50;25.00;;;;;8.71;67.93;103494.50;5063944;28;45678;-77
2022/01/18 11:18:29;;;;;;;;;28.50;23.00;;;;;8.74;67.65;103487.56;5065468;28;45402;-77
2022/01/18 11:20:55;;;;;;;;;25.50;20.75;;;;;8.78;67.73;103485.88;5069177;27;46190;-77
2022/01/18 11:23:23;;;;;;;;;31.25;26.50;;;;;8.81;66.87;103475.47;5075666;28;45983;-77
2022/01/18 11:25:50;;;;;;;;;24.75;20.50;;;;;8.86;67.36;103471.19;5061083;28;45441;-77
2022/01/18 11:28:16;;;;;;;;;25.50;24.25;;;;;8.91;66.96;103476.50;5061252;28;45350;-77
2022/01/18 11:30:44;;;;;;;;;23.25;20.75;;;;;8.95;66.75;103462.59;5074096;28;46114;-77
2022/01/18 11:33:15;;;;;;;;;22.75;22.75;;;;;9.00;66.23;103454.81;5064903;28;45825;-77
2022/01/18 11:35:44;;;;;;;;;31.25;23.00;;;;;9.05;66.10;103447.00;5064406;28;45461;-79
2022/01/18 11:38:35;;;;;;;;;21.25;17.00;;;;;9.10;66.94;103437.47;5061297;28;45543;-78
2022/01/18 11:41:05;;;;;;;;;24.50;18.25;;;;;9.14;66.75;103439.28;5068337;28;45495;-78
2022/01/18 11:43:45;;;;;;;;;25.50;20.00;;;;;9.17;66.14;103418.34;5065421;27;45317;-78
2022/01/18 11:46:31;;;;;;;;;20.00;18.50;;;;;9.20;65.11;103418.41;5061582;28;45235;-78
2022/01/18 11:49:04;;;;;;;;;21.75;19.25;;;;;9.25;65.55;103415.84;5066016;28;45579;-78
2022/01/18 11:51:38;;;;;;;;;19.75;16.75;;;;;9.29;65.58;103419.41;5061286;28;45652;-77
2022/01/18 11:57:23;;;;;;;;;19.50;15.75;;;;;9.38;64.31;103409.06;5061941;28;45270;-77
2022/01/18 11:59:54;;;;;;;;;23.25;18.25;;;;;9.43;64.86;103409.13;5060807;28;45392;-77
2022/01/18 12:02:41;;;;;;;;;18.75;17.25;;;;;9.47;63.63;103397.81;5065767;28;46481;-77
2022/01/18 12:05:13;;;;;;;;;20.75;19.50;;;;;9.48;63.28;103407.47;5066961;27;45278;-77
2022/01/18 12:07:44;;;;;;;;;21.75;16.00;;;;;9.53;64.26;103399.66;5061241;28;45453;-77
2022/01/18 12:10:29;;;;;;;;;20.25;16.00;;;;;9.57;63.33;103402.34;5061129;28;45432;-77
2022/01/18 12:12:56;;;;;;;;;19.00;17.75;;;;;9.62;63.75;103399.78;5061315;28;45473;-77
2022/01/18 12:15:26;;;;;;;;;21.00;14.75;;;;;9.65;63.43;103385.81;5060960;28;45768;-77
2022/01/18 12:17:54;;;;;;;;;19.50;16.25;;;;;9.70;63.61;103388.50;5066483;28;45371;-77
2022/01/18 12:20:39;;;;;;;;;22.50;18.00;;;;;9.73;62.93;103383.28;5067791;27;45925;-77
2022/01/18 12:23:27;;;;;;;;;14.75;12.75;;;;;9.75;63.26;103378.94;5060944;28;45506;-77
2022/01/18 12:26:00;;;;;;;;;20.00;16.75;;;;;9.78;63.07;103381.56;5052004;28;45755;-77
2022/01/18 12:34:34;;;;;;;;;24.25;19.50;;;;;9.89;63.33;103360.72;5061220;28;45497;-77